Time;durP1;ratioP1;P1;durP2;ratioP2;P2;SDS_P1;SDS_P2;PMS_P1;PMS_P2;Temp;Humidity;BMP_temperature;BMP_pressure;BME280_temperature;BME280_humidity;BME280_pressure;Samples;Min_cycle;Max_cycle;Signal;HPM_P1;HPM_P2
2021/08/30 00:00:42;;;;;;;15.30;9.73;;;;;;;13.57;77.08;101252.97;5064255;28;20039;-73
2021/08/30 00:03:07;;;;;;;14.80;10.60;;;;;;;13.55;77.20;101252.97;5064522;28;20029;-72
2021/08/30 00:05:33;;;;;;;14.45;10.77;;;;;;;13.49;77.17;101243.44;5064116;28;20028;-72
2021/08/30 00:07:59;;;;;;;13.75;9.88;;;;;;;13.50;77.16;101245.19;5064033;28;20067;-72
2021/08/30 00:10:25;;;;;;;15.38;10.55;;;;;;;13.52;77.22;101253.00;5063861;28;20258;-71
2021/08/30 00:12:51;;;;;;;13.20;9.50;;;;;;;13.49;77.34;101250.38;5063158;28;20031;-72
2021/08/30 00:15:16;;;;;;;14.10;9.88;;;;;;;13.46;77.22;101253.91;5063139;28;20100;-72
2021/08/30 00:17:42;;;;;;;13.70;9.73;;;;;;;13.40;77.39;101243.50;5063199;28;20461;-73
2021/08/30 00:20:14;;;;;;;16.60;10.48;;;;;;;13.41;77.35;101258.28;5063351;28;20025;-73
2021/08/30 00:22:40;;;;;;;13.43;9.93;;;;;;;13.38;77.74;101255.69;5063398;28;20017;-73
2021/08/30 00:25:06;;;;;;;15.15;11.30;;;;;;;13.35;77.78;101261.78;5063109;28;20094;-71
2021/08/30 00:27:31;;;;;;;18.10;9.57;;;;;;;13.30;77.97;101273.13;5062811;28;20029;-71
2021/08/30 00:29:57;;;;;;;14.30;10.48;;;;;;;13.27;77.97;101266.19;5062938;28;20028;-71
2021/08/30 00:32:22;;;;;;;17.35;11.23;;;;;;;13.23;78.13;101270.53;5063291;28;20245;-71
2021/08/30 00:34:48;;;;;;;16.10;10.30;;;;;;;13.21;78.16;101274.03;5062850;28;20097;-71
2021/08/30 00:37:14;;;;;;;14.60;10.50;;;;;;;13.17;78.13;101273.19;5063135;28;20018;-72
2021/08/30 00:39:39;;;;;;;14.73;10.68;;;;;;;13.13;78.11;101268.88;5062726;28;20035;-72
2021/08/30 00:42:05;;;;;;;16.13;11.30;;;;;;;13.09;78.29;101277.56;5062908;28;20021;-73
2021/08/30 00:44:30;;;;;;;15.50;10.98;;;;;;;12.99;78.35;101275.00;5062839;28;20082;-72
2021/08/30 00:46:56;;;;;;;19.88;10.82;;;;;;;12.97;78.21;101275.91;5062551;28;20020;-73
2021/08/30 00:49:39;;;;;;;16.83;11.00;;;;;;;12.92;78.36;101275.03;5063084;28;20029;-74
2021/08/30 00:52:05;;;;;;;17.25;10.88;;;;;;;12.83;78.46;101269.00;5063121;28;20229;-73
2021/08/30 00:54:31;;;;;;;15.55;11.77;;;;;;;12.79;78.44;101264.69;5062822;28;20166;-73
2021/08/30 00:56:57;;;;;;;19.40;12.13;;;;;;;12.69;78.57;101256.03;5062368;28;20017;-73
2021/08/30 00:59:23;;;;;;;17.33;11.70;;;;;;;12.70;78.52;101267.31;5062588;28;20021;-72
2021/08/30 01:01:51;;;;;;;18.20;12.05;;;;;;;12.67;78.61;101267.34;5062747;28;20572;-72
2021/08/30 01:04:16;;;;;;;16.77;11.10;;;;;;;12.63;78.89;101262.13;5062479;28;20025;-72
2021/08/30 01:07:17;;;;;;;15.27;10.48;;;;;;;12.60;79.00;101269.94;5060283;28;20102;-73
2021/08/30 01:09:59;;;;;;;14.82;10.50;;;;;;;12.60;79.09;101269.94;5020047;28;20069;-73
2021/08/30 01:12:32;;;;;;;21.00;12.48;;;;;;;12.57;79.15;101271.69;4982288;28;1110576;-73
2021/08/30 01:15:15;;;;;;;15.63;10.35;;;;;;;12.54;79.31;101264.75;5020435;28;20421;-72
2021/08/30 01:17:44;;;;;;;19.45;10.88;;;;;;;12.55;79.54;101273.44;5020727;28;20060;-73
2021/08/30 01:20:29;;;;;;;18.42;11.63;;;;;;;12.51;79.50;101273.44;5020689;28;20049;-72
2021/08/30 01:22:57;;;;;;;16.40;10.65;;;;;;;12.50;79.76;101282.13;5020702;28;20025;-72
2021/08/30 01:25:24;;;;;;;17.48;10.82;;;;;;;12.46;79.66;101271.72;5020703;28;20394;-73
2021/08/30 01:27:51;;;;;;;15.13;10.50;;;;;;;12.49;79.91;101280.38;5004246;28;20034;-74
2021/08/30 01:30:22;;;;;;;16.67;11.25;;;;;;;12.49;79.96;101276.94;5020672;28;20553;-72
2021/08/30 01:32:54;;;;;;;14.50;10.05;;;;;;;12.49;80.30;101277.78;5020625;28;20541;-73
2021/08/30 01:35:23;;;;;;;12.93;10.25;;;;;;;12.48;80.28;101273.44;5020637;28;20355;-72
2021/08/30 01:37:51;;;;;;;12.93;8.80;;;;;;;12.52;80.10;101285.56;5020649;28;20029;-72
2021/08/30 01:40:19;;;;;;;16.23;10.55;;;;;;;12.50;80.07;101278.66;5020706;28;20049;-72
2021/08/30 01:42:49;;;;;;;13.52;10.05;;;;;;;12.50;80.00;101276.03;5020319;28;20029;-71
2021/08/30 01:45:19;;;;;;;17.20;11.70;;;;;;;12.50;80.14;101273.44;5020387;28;20034;-72
2021/08/30 01:47:45;;;;;;;14.95;10.65;;;;;;;12.49;80.04;101277.78;5062824;28;20044;-72
2021/08/30 01:50:14;;;;;;;13.60;10.95;;;;;;;12.48;80.17;101273.44;5063064;28;20021;-72
2021/08/30 01:52:41;;;;;;;15.82;11.20;;;;;;;12.47;79.93;101270.84;5062773;28;20021;-72
2021/08/30 01:55:58;;;;;;;14.77;10.80;;;;;;;12.46;79.89;101276.94;5062859;28;20021;-72
2021/08/30 02:00:49;;;;;;;15.65;11.48;;;;;;;12.41;79.99;101276.06;5062700;28;20504;-72
2021/08/30 02:03:26;;;;;;;17.50;11.27;;;;;;;12.39;79.92;101269.13;5062629;28;20024;-73
2021/08/30 02:06:12;;;;;;;15.18;10.77;;;;;;;12.38;79.65;101272.59;5062548;28;20029;-72
2021/08/30 02:08:37;;;;;;;18.08;11.65;;;;;;;12.35;80.15;101267.41;5062312;28;20091;-72
2021/08/30 02:11:05;;;;;;;16.80;12.13;;;;;;;12.35;79.96;101270.00;5062316;28;20049;-73
2021/08/30 02:13:31;;;;;;;18.45;11.25;;;;;;;12.34;79.93;101267.41;5061427;28;20068;-72
2021/08/30 02:15:58;;;;;;;16.60;10.90;;;;;;;12.34;80.22;101272.59;5062494;28;20187;-72
2021/08/30 02:18:53;;;;;;;20.52;11.88;;;;;;;12.29;80.17;101267.41;5063027;28;20032;-73
2021/08/30 02:21:37;;;;;;;17.35;11.63;;;;;;;12.26;80.33;101273.50;5056073;28;20029;-73
2021/08/30 02:24:10;;;;;;;19.77;13.25;;;;;;;12.23;80.43;101267.41;5066155;28;20028;-72
2021/08/30 02:26:45;;;;;;;22.10;12.30;;;;;;;12.21;80.50;101269.16;5066223;28;20021;-72
2021/08/30 02:29:17;;;;;;;21.08;13.30;;;;;;;12.19;80.74;101270.91;5064904;28;20025;-74
2021/08/30 02:31:47;;;;;;;17.58;11.63;;;;;;;12.18;80.68;101261.34;5066260;28;20027;-73
2021/08/30 02:34:14;;;;;;;18.13;12.00;;;;;;;12.16;80.84;101263.94;5064552;28;20064;-72
2021/08/30 02:36:40;;;;;;;18.30;12.80;;;;;;;12.17;80.64;101268.31;5065687;28;20043;-72
2021/08/30 02:39:06;;;;;;;21.85;13.77;;;;;;;12.14;81.23;101269.16;5065796;28;20025;-72
2021/08/30 02:41:32;;;;;;;16.75;12.05;;;;;;;12.16;80.84;101266.56;5065753;28;20025;-72
2021/08/30 02:43:58;;;;;;;17.10;11.63;;;;;;;12.16;80.72;101271.75;5065905;28;20024;-72
2021/08/30 02:46:24;;;;;;;18.63;11.90;;;;;;;12.14;80.70;101266.56;5065972;28;20017;-72
2021/08/30 02:48:51;;;;;;;18.63;12.13;;;;;;;12.14;80.83;101269.16;5066329;28;20016;-70
2021/08/30 02:51:18;;;;;;;17.48;12.27;;;;;;;12.10;80.80;101261.34;5065708;28;20051;-69
2021/08/30 02:53:44;;;;;;;18.00;11.55;;;;;;;12.10;80.81;101272.66;5065632;28;20280;-71
2021/08/30 02:56:11;;;;;;;19.77;12.50;;;;;;;12.07;81.03;101272.63;5065730;28;20025;-72
2021/08/30 02:58:36;;;;;;;18.40;11.63;;;;;;;12.04;81.23;101272.63;5047680;28;20032;-76
2021/08/30 03:01:03;;;;;;;20.65;11.93;;;;;;;12.04;81.09;101270.03;5065618;28;20024;-71
2021/08/30 03:03:28;;;;;;;17.98;12.48;;;;;;;11.99;81.15;101271.75;5065464;28;20024;-71
2021/08/30 03:05:56;;;;;;;16.10;11.30;;;;;;;11.97;81.27;101273.47;5065317;28;20040;-71
2021/08/30 03:08:22;;;;;;;19.05;11.70;;;;;;;11.90;81.14;101275.22;5065377;28;20469;-70
2021/08/30 03:10:48;;;;;;;17.30;12.10;;;;;;;11.89;81.24;101271.75;5064919;28;20053;-70
2021/08/30 03:13:14;;;;;;;16.33;11.77;;;;;;;11.86;81.32;101281.28;5065083;28;20028;-70
2021/08/30 03:15:43;;;;;;;17.50;11.15;;;;;;;11.83;81.61;101282.16;5065296;28;20504;-70
2021/08/30 03:18:11;;;;;;;20.00;12.48;;;;;;;11.81;81.54;101278.69;5065248;28;20025;-71
2021/08/30 03:20:37;;;;;;;18.88;12.05;;;;;;;11.78;81.68;101269.16;5065026;28;20025;-70
2021/08/30 03:23:03;;;;;;;15.43;11.18;;;;;;;11.78;82.06;101270.88;5064838;28;20107;-69
2021/08/30 03:25:33;;;;;;;15.13;11.45;;;;;;;11.81;81.82;101272.59;5065207;28;20085;-71
2021/08/30 03:27:59;;;;;;;14.95;10.48;;;;;;;11.80;81.73;101273.47;5064765;28;20033;-72
2021/08/30 03:30:26;;;;;;;19.23;11.20;;;;;;;11.82;81.67;101266.56;5064064;28;20032;-71
2021/08/30 03:32:52;;;;;;;15.77;10.45;;;;;;;11.80;81.75;101276.09;5064653;28;20021;-71
2021/08/30 03:35:20;;;;;;;17.58;11.90;;;;;;;11.81;81.85;101281.28;5064697;28;20041;-71
2021/08/30 03:37:46;;;;;;;15.38;10.27;;;;;;;11.81;81.68;101273.47;5064607;28;20124;-69
2021/08/30 03:40:14;;;;;;;15.68;10.43;;;;;;;11.80;81.81;101278.69;5064613;28;20021;-71
2021/08/30 03:42:42;;;;;;;17.50;10.93;;;;;;;11.78;81.83;101274.34;5064691;28;20016;-72
2021/08/30 03:45:09;;;;;;;17.25;11.50;;;;;;;11.71;81.93;101271.75;5064705;28;20021;-70
2021/08/30 03:47:36;;;;;;;18.00;10.30;;;;;;;11.78;81.72;101281.28;5064756;28;20032;-68
2021/08/30 03:50:03;;;;;;;17.40;11.55;;;;;;;11.77;81.75;101287.38;5064441;28;20477;-69
2021/08/30 03:52:30;;;;;;;17.85;11.07;;;;;;;11.77;81.55;101282.16;5064287;28;20021;-69
2021/08/30 03:54:56;;;;;;;18.00;11.25;;;;;;;11.76;81.76;101288.22;5064327;28;20025;-69
2021/08/30 03:57:22;;;;;;;14.65;10.80;;;;;;;11.76;81.62;101283.88;5064327;28;20109;-70
2021/08/30 03:59:54;;;;;;;15.88;10.43;;;;;;;11.75;81.55;101289.97;5064385;28;20027;-70
2021/08/30 04:02:21;;;;;;;15.43;10.82;;;;;;;11.73;81.76;101283.00;5064098;28;20085;-70
2021/08/30 04:04:48;;;;;;;15.82;9.27;;;;;;;11.75;81.92;101291.69;5064176;28;20040;-70
2021/08/30 04:07:16;;;;;;;16.33;10.63;;;;;;;11.73;81.89;101291.69;5063880;28;20016;-70
2021/08/30 04:09:41;;;;;;;17.70;10.70;;;;;;;11.77;81.79;101284.75;5064083;28;20029;-71
2021/08/30 04:12:07;;;;;;;17.40;9.70;;;;;;;11.77;81.92;101289.97;5063864;28;20045;-70
2021/08/30 04:14:32;;;;;;;14.18;9.60;;;;;;;11.78;81.99;101286.50;5064521;28;20112;-70
2021/08/30 04:16:58;;;;;;;13.95;10.10;;;;;;;11.81;81.75;101285.59;5063773;28;20035;-70
2021/08/30 04:19:23;;;;;;;13.70;9.75;;;;;;;11.79;82.05;101283.00;5063701;28;20024;-70
2021/08/30 04:21:48;;;;;;;15.55;10.07;;;;;;;11.84;82.00;101290.81;5063926;28;20032;-70
2021/08/30 04:24:14;;;;;;;12.98;9.85;;;;;;;11.88;82.07;101298.66;5063784;28;20025;-70
2021/08/30 04:26:40;;;;;;;16.65;10.10;;;;;;;12.00;82.36;101291.69;5063883;28;20077;-63
2021/08/30 04:29:05;;;;;;;12.63;8.20;;;;;;;12.13;82.32;101300.41;5063746;28;20428;-65
2021/08/30 04:31:32;;;;;;;13.50;8.25;;;;;;;12.22;82.53;101289.97;5063726;28;20484;-72
2021/08/30 04:33:57;;;;;;;12.52;8.75;;;;;;;12.39;82.83;101294.31;5063528;28;20091;-69
2021/08/30 04:36:22;;;;;;;12.10;9.05;;;;;;;12.53;82.73;101286.47;5063504;28;20028;-68
2021/08/30 04:38:48;;;;;;;10.38;7.65;;;;;;;12.74;82.91;101290.75;5063514;28;20028;-70
2021/08/30 04:41:13;;;;;;;11.45;7.22;;;;;;;12.94;82.94;101287.19;5063226;28;20017;-70
2021/08/30 04:43:39;;;;;;;12.00;7.68;;;;;;;13.13;82.49;101293.19;5063691;28;20032;-71
2021/08/30 04:46:21;;;;;;;10.70;7.60;;;;;;;13.32;82.05;101287.88;5064180;28;20021;-72
2021/08/30 04:48:47;;;;;;;10.80;7.50;;;;;;;13.63;82.44;101294.66;5063573;28;20033;-71
2021/08/30 04:51:12;;;;;;;8.43;6.95;;;;;;;13.78;81.57;101292.84;5063381;28;20029;-70
2021/08/30 04:53:37;;;;;;;10.73;7.68;;;;;;;13.90;80.89;101295.34;5063440;28;20108;-70
2021/08/30 04:56:03;;;;;;;9.40;6.22;;;;;;;14.16;80.69;101294.25;5063341;28;20028;-67
2021/08/30 04:58:28;;;;;;;14.13;6.70;;;;;;;14.47;80.88;101296.56;5063413;28;20020;-68
2021/08/30 05:00:54;;;;;;;10.02;6.43;;;;;;;14.92;80.06;101304.81;5063404;28;20024;-70
2021/08/30 05:03:19;;;;;;;7.75;5.75;;;;;;;15.36;79.28;101300.75;5063239;28;20033;-68
2021/08/30 05:05:44;;;;;;;8.10;6.43;;;;;;;15.77;78.09;101294.91;5063380;28;20085;-69
2021/08/30 05:08:10;;;;;;;11.40;5.97;;;;;;;16.17;77.02;101298.66;5063043;28;20017;-70
2021/08/30 05:10:36;;;;;;;8.40;5.57;;;;;;;16.57;75.17;101299.66;5063160;28;20083;-70
2021/08/30 05:13:01;;;;;;;10.02;6.13;;;;;;;16.91;73.56;101302.50;5063207;28;20029;-71
2021/08/30 05:15:27;;;;;;;6.03;5.10;;;;;;;17.14;72.75;101301.19;5062610;28;20033;-69
2021/08/30 05:17:52;;;;;;;8.63;5.90;;;;;;;17.28;70.79;101303.53;5062757;28;20241;-70
2021/08/30 05:20:18;;;;;;;7.35;5.28;;;;;;;17.24;69.93;101307.97;5062693;28;20020;-71
2021/08/30 05:22:45;;;;;;;8.57;5.68;;;;;;;17.06;69.35;101311.84;5062904;28;20025;-71
2021/08/30 05:25:11;;;;;;;12.13;6.07;;;;;;;17.05;68.50;101308.34;5062617;28;20021;-69
2021/08/30 05:27:36;;;;;;;9.88;6.70;;;;;;;17.17;69.21;101303.75;5062612;28;20154;-70
2021/08/30 05:30:02;;;;;;;8.30;5.95;;;;;;;17.42;66.62;101308.44;5061595;28;20479;-70
2021/08/30 05:32:30;;;;;;;7.07;5.60;;;;;;;17.45;66.79;101313.63;5061268;28;20020;-70
2021/08/30 05:34:56;;;;;;;7.93;5.88;;;;;;;17.64;67.42;101313.19;5062892;28;20537;-70
2021/08/30 05:37:21;;;;;;;7.57;6.03;;;;;;;18.06;66.19;101315.69;5062994;28;20056;-69
2021/08/30 05:39:46;;;;;;;9.90;6.13;;;;;;;18.53;64.12;101318.91;5063118;28;20017;-69
2021/08/30 05:42:12;;;;;;;7.15;5.93;;;;;;;18.73;62.87;101322.72;5063118;28;20021;-70
2021/08/30 05:44:37;;;;;;;9.00;5.97;;;;;;;18.89;61.96;101315.25;5062697;28;20078;-69
2021/08/30 05:47:03;;;;;;;8.85;5.57;;;;;;;18.94;61.65;101319.50;5062252;28;20081;-70
2021/08/30 05:49:28;;;;;;;8.50;5.70;;;;;;;18.78;59.56;101323.47;5062534;28;20025;-69
2021/08/30 05:51:56;;;;;;;7.90;6.20;;;;;;;18.63;59.91;101320.34;5062614;28;20025;-69
2021/08/30 05:54:22;;;;;;;8.25;5.75;;;;;;;18.32;58.65;101310.69;5064573;28;20132;-69
2021/08/30 05:56:47;;;;;;;8.02;5.53;;;;;;;17.94;60.09;101321.22;5066261;28;20066;-69
2021/08/30 05:59:12;;;;;;;8.20;5.55;;;;;;;17.90;60.47;101316.97;5066497;28;20080;-69
2021/08/30 06:01:38;;;;;;;8.82;6.05;;;;;;;18.11;60.87;101318.19;5066302;28;20021;-68
2021/08/30 06:04:04;;;;;;;6.47;4.97;;;;;;;18.51;60.77;101311.06;5066323;28;20028;-71
2021/08/30 06:06:29;;;;;;;8.05;5.85;;;;;;;18.58;59.39;101316.97;5066254;28;20102;-71
2021/08/30 06:08:55;;;;;;;7.05;5.15;;;;;;;18.61;59.63;101310.81;5066310;28;20029;-70
2021/08/30 06:11:20;;;;;;;6.93;4.63;;;;;;;18.74;58.15;101311.31;5066143;28;20049;-71
2021/08/30 06:13:46;;;;;;;9.50;5.32;;;;;;;18.56;58.28;101311.78;5066253;28;20088;-70
2021/08/30 06:16:12;;;;;;;7.15;5.15;;;;;;;18.55;58.64;101311.81;5065993;28;20017;-71
2021/08/30 06:18:37;;;;;;;7.03;3.97;;;;;;;18.62;58.41;101307.25;5065976;28;20029;-72
2021/08/30 06:21:03;;;;;;;9.45;5.00;;;;;;;18.61;58.32;101310.81;5065866;28;20031;-71
2021/08/30 06:23:30;;;;;;;6.53;4.90;;;;;;;18.80;57.59;101304.09;5065748;28;20024;-71
2021/08/30 06:25:55;;;;;;;7.45;4.95;;;;;;;18.94;56.75;101310.75;5065812;28;20075;-70
2021/08/30 06:28:21;;;;;;;7.50;5.28;;;;;;;18.92;56.86;101296.75;5065804;28;20020;-70
2021/08/30 06:30:46;;;;;;;6.20;4.88;;;;;;;19.11;56.93;101310.25;5065651;28;20345;-71
2021/08/30 06:33:11;;;;;;;6.78;4.60;;;;;;;19.51;56.38;101305.53;5065726;28;20040;-70
2021/08/30 06:35:42;;;;;;;6.65;4.30;;;;;;;20.00;55.86;101307.47;5065296;28;20017;-69
2021/08/30 06:38:07;;;;;;;5.60;4.40;;;;;;;20.61;54.78;101307.16;5065718;28;20485;-69
2021/08/30 06:40:32;;;;;;;7.75;4.63;;;;;;;20.85;52.90;101304.53;5065608;28;20029;-69
2021/08/30 06:42:58;;;;;;;6.32;4.63;;;;;;;21.10;52.60;101303.66;5065641;28;20120;-70
2021/08/30 06:45:23;;;;;;;6.50;4.30;;;;;;;20.96;51.36;101307.66;5065413;28;20154;-69
2021/08/30 06:47:50;;;;;;;5.78;3.95;;;;;;;20.73;52.04;101301.47;5065305;28;20055;-69
2021/08/30 06:50:16;;;;;;;6.80;4.57;;;;;;;20.50;52.37;101297.88;5065694;28;20025;-70
2021/08/30 06:52:42;;;;;;;5.63;4.45;;;;;;;20.54;52.24;101310.03;5065735;28;20059;-69
2021/08/30 06:55:07;;;;;;;7.68;4.55;;;;;;;20.49;51.93;101308.47;5065126;28;20032;-70
2021/08/30 06:57:35;;;;;;;6.38;3.83;;;;;;;20.19;51.20;101302.47;5065140;28;20043;-71
2021/08/30 07:00:01;;;;;;;5.13;4.20;;;;;;;19.71;52.27;101304.06;5065155;28;20029;-71
2021/08/30 07:02:26;;;;;;;5.32;4.00;;;;;;;19.35;52.84;101312.19;5065184;28;20078;-72
2021/08/30 07:04:52;;;;;;;6.18;3.55;;;;;;;19.28;53.72;101304.47;5064847;28;20048;-70
2021/08/30 07:07:17;;;;;;;7.97;4.97;;;;;;;19.45;53.70;101305.75;5064853;28;20425;-71
2021/08/30 07:09:42;;;;;;;5.80;3.88;;;;;;;19.64;53.21;101313.03;5064750;28;20041;-71
2021/08/30 07:12:08;;;;;;;6.35;4.18;;;;;;;19.74;52.93;101314.47;5064961;28;20073;-72
2021/08/30 07:14:33;;;;;;;7.60;4.30;;;;;;;19.73;52.04;101307.47;5064783;28;20021;-72
2021/08/30 07:16:59;;;;;;;7.88;3.80;;;;;;;19.72;52.75;101302.25;5064664;28;20077;-72
2021/08/30 07:19:24;;;;;;;7.10;3.83;;;;;;;20.03;52.60;101310.03;5064707;28;20469;-72
2021/08/30 07:21:49;;;;;;;4.45;3.47;;;;;;;20.37;52.16;101305.38;5064594;28;20017;-71
2021/08/30 07:24:15;;;;;;;10.07;4.35;;;;;;;20.63;50.68;101310.63;5064588;28;20047;-72
2021/08/30 07:26:40;;;;;;;6.25;3.67;;;;;;;20.73;50.20;101314.66;5064751;28;20017;-72
2021/08/30 07:29:06;;;;;;;7.65;3.75;;;;;;;20.51;49.78;101312.78;5064785;28;20028;-72
2021/08/30 07:31:31;;;;;;;8.75;3.80;;;;;;;20.31;50.04;101324.03;5064609;28;20118;-71
2021/08/30 07:33:57;;;;;;;5.32;3.90;;;;;;;20.08;49.88;101316.94;5064512;28;20093;-72
2021/08/30 07:36:22;;;;;;;4.93;3.47;;;;;;;20.06;50.34;101315.19;5064248;28;20021;-71
2021/08/30 07:38:48;;;;;;;5.57;3.75;;;;;;;20.32;50.99;101312.56;5064767;28;20044;-71
2021/08/30 07:41:13;;;;;;;6.50;4.45;;;;;;;20.52;49.22;101316.28;5064524;28;20139;-72
2021/08/30 07:43:38;;;;;;;4.85;3.20;;;;;;;20.36;49.26;101318.59;5064439;28;20120;-72
2021/08/30 07:46:04;;;;;;;5.90;3.50;;;;;;;20.31;49.84;101319.63;5064360;28;20020;-72
2021/08/30 07:48:29;;;;;;;6.70;3.92;;;;;;;20.47;49.21;101318.22;5064439;28;20028;-72
2021/08/30 07:50:55;;;;;;;5.38;3.63;;;;;;;20.58;49.54;101309.91;5064418;28;20021;-72
2021/08/30 07:53:23;;;;;;;5.53;3.95;;;;;;;20.83;48.97;101314.31;5064051;28;20021;-75
2021/08/30 07:55:48;;;;;;;5.50;3.80;;;;;;;20.91;48.33;101315.75;5064049;28;20020;-68
2021/08/30 07:58:16;;;;;;;5.72;3.55;;;;;;;20.85;47.79;101304.53;5064343;28;20047;-65
2021/08/30 08:00:41;;;;;;;6.72;3.55;;;;;;;20.54;47.89;101322.38;5064340;28;20021;-68
2021/08/30 08:03:06;;;;;;;5.75;3.88;;;;;;;20.28;47.57;101316.25;5064294;28;20028;-68
2021/08/30 08:05:32;;;;;;;3.85;3.05;;;;;;;20.01;48.32;101319.75;5064320;28;20021;-68
2021/08/30 08:07:58;;;;;;;5.57;3.47;;;;;;;19.83;48.57;101329.13;5064084;28;20028;-68
2021/08/30 08:10:23;;;;;;;6.53;4.05;;;;;;;19.73;49.33;101327.72;5063766;28;20047;-69
2021/08/30 08:12:49;;;;;;;7.22;4.00;;;;;;;19.90;48.98;101320.13;5063786;28;20029;-69
2021/08/30 08:15:14;;;;;;;5.22;3.50;;;;;;;20.05;49.30;101326.66;5063689;28;20120;-69
2021/08/30 08:17:39;;;;;;;3.78;2.80;;;;;;;20.21;48.53;101320.00;5063313;28;20025;-68
2021/08/30 08:20:06;;;;;;;6.13;3.40;;;;;;;20.26;48.32;101316.28;5064038;28;20025;-68
2021/08/30 08:22:34;;;;;;;4.95;3.53;;;;;;;20.37;48.13;101329.09;5063922;28;20021;-69
2021/08/30 08:25:01;;;;;;;5.40;3.67;;;;;;;20.46;48.11;101320.00;5064075;28;20025;-69
2021/08/30 08:27:27;;;;;;;7.63;4.35;;;;;;;20.76;47.75;101319.81;5062323;28;20104;-68
2021/08/30 08:29:52;;;;;;;4.65;3.03;;;;;;;21.13;46.65;101322.88;5063587;28;20028;-67
2021/08/30 08:32:17;;;;;;;6.50;3.72;;;;;;;21.11;46.70;101323.84;5063716;28;20017;-69
2021/08/30 08:34:43;;;;;;;5.63;4.20;;;;;;;21.17;46.72;101319.19;5063754;28;20017;-69
2021/08/30 08:37:09;;;;;;;5.90;3.83;;;;;;;21.38;45.44;101329.84;5063699;28;20521;-69
2021/08/30 08:39:35;;;;;;;4.40;3.92;;;;;;;21.33;45.82;101328.28;5063702;28;20025;-69
2021/08/30 08:42:01;;;;;;;4.40;3.60;;;;;;;21.29;45.52;101317.84;5063331;28;20021;-69
2021/08/30 08:44:26;;;;;;;7.10;3.67;;;;;;;21.27;45.47;101316.19;5063621;28;20025;-65
2021/08/30 08:46:52;;;;;;;5.18;3.22;;;;;;;21.26;45.31;101320.59;5063598;28;20085;-68
2021/08/30 08:49:21;;;;;;;6.15;3.80;;;;;;;21.28;46.07;101316.13;5063464;28;20021;-67
2021/08/30 08:51:46;;;;;;;5.30;3.42;;;;;;;21.65;45.28;101326.13;5063426;28;20100;-66
2021/08/30 08:54:13;;;;;;;5.13;3.53;;;;;;;21.96;44.40;101306.41;5063326;28;20533;-68
2021/08/30 08:56:39;;;;;;;4.18;3.50;;;;;;;22.13;43.84;101315.41;5063241;28;20051;-69
2021/08/30 08:59:04;;;;;;;5.25;3.95;;;;;;;22.26;44.05;101310.44;5063387;28;20029;-68
2021/08/30 09:01:35;;;;;;;6.28;3.60;;;;;;;22.50;43.49;101315.56;5062071;28;20021;-67
2021/08/30 09:04:01;;;;;;;4.68;3.53;;;;;;;22.70;42.86;101306.75;5063203;28;20051;-67
2021/08/30 09:06:34;;;;;;;6.15;3.67;;;;;;;22.86;42.17;101308.72;5063138;28;20033;-68
2021/08/30 09:09:04;;;;;;;5.55;4.05;;;;;;;23.08;41.76;101305.06;5063358;28;20029;-68
2021/08/30 09:11:56;;;;;;;5.28;3.63;;;;;;;23.32;41.58;101302.19;5063017;28;20045;-67
2021/08/30 09:14:23;;;;;;;;;;;;;;;23.91;41.23;101309.94;5063738;28;20025;-66
2021/08/30 09:17:00;;;;;;;8.15;3.60;;;;;;;24.06;39.77;101296.84;5063056;28;19913;-67
2021/08/30 09:19:26;;;;;;;4.85;3.20;;;;;;;24.28;39.28;101301.03;5063292;28;20017;-68
2021/08/30 09:21:51;;;;;;;6.13;3.42;;;;;;;24.55;38.18;101292.56;5062979;28;20650;-67
2021/08/30 09:24:24;;;;;;;5.65;3.85;;;;;;;24.53;36.80;101311.22;5062935;28;20040;-68
2021/08/30 09:27:11;;;;;;;7.68;3.80;;;;;;;23.92;37.22;101297.50;5062870;28;20021;-68
2021/08/30 09:29:40;;;;;;;6.20;3.67;;;;;;;24.07;37.29;101298.53;5065700;28;20094;-67
2021/08/30 09:32:14;;;;;;;4.10;3.20;;;;;;;24.04;36.26;101298.69;5067118;28;20027;-68
2021/08/30 09:34:50;;;;;;;4.95;3.33;;;;;;;23.64;36.75;101291.84;5067032;28;20031;-67
2021/08/30 09:37:19;;;;;;;4.78;3.17;;;;;;;23.67;37.02;101290.81;5066751;28;20032;-67
2021/08/30 09:39:57;;;;;;;4.53;3.10;;;;;;;23.82;37.59;101284.72;5066734;28;20036;-67
2021/08/30 09:42:24;;;;;;;4.15;2.60;;;;;;;24.00;36.58;101290.91;5066949;28;20033;-68
2021/08/30 09:44:50;;;;;;;3.60;2.85;;;;;;;24.01;36.11;101279.34;5066950;28;20104;-68
2021/08/30 09:47:17;;;;;;;4.57;3.10;;;;;;;24.45;35.69;101281.56;5066802;28;20025;-68
2021/08/30 09:49:51;;;;;;;4.35;3.20;;;;;;;25.15;35.02;101280.44;5066789;28;20021;-67
2021/08/30 09:52:21;;;;;;;4.03;3.05;;;;;;;25.48;33.67;101281.28;5066605;28;20094;-67
2021/08/30 09:54:47;;;;;;;5.00;3.55;;;;;;;25.35;33.48;101286.44;5066641;28;20033;-68
2021/08/30 09:57:13;;;;;;;6.38;2.92;;;;;;;25.44;32.63;101288.56;5066457;28;20074;-68
2021/08/30 09:59:42;;;;;;;6.10;3.15;;;;;;;25.17;31.82;101285.69;5066456;28;20032;-67
2021/08/30 10:02:10;;;;;;;4.00;2.70;;;;;;;24.85;32.96;101278.53;5066373;28;20029;-68
2021/08/30 10:04:36;;;;;;;4.93;2.75;;;;;;;24.57;33.34;101291.50;5066623;28;20025;-65
2021/08/30 10:07:02;;;;;;;7.55;3.20;;;;;;;24.51;34.28;101283.88;5066445;28;20024;-67
2021/08/30 10:09:30;;;;;;;4.43;3.33;;;;;;;24.63;34.15;101272.59;5066367;28;20052;-67
2021/08/30 10:11:55;;;;;;;5.90;3.80;;;;;;;24.93;33.43;101276.34;5065813;28;20068;-67
2021/08/30 10:14:26;;;;;;;5.28;3.58;;;;;;;24.76;33.26;101270.13;5066531;28;20101;-67
2021/08/30 10:16:53;;;;;;;4.17;3.37;;;;;;;24.57;33.45;101274.75;5066213;28;20036;-68
2021/08/30 10:19:58;;;;;;;5.95;4.15;;;;;;;24.72;34.01;101265.94;5066400;28;20016;-68
2021/08/30 10:22:23;;;;;;;4.90;3.53;;;;;;;24.87;33.53;101266.03;5034629;28;20033;-68
2021/08/30 10:24:49;;;;;;;4.07;3.08;;;;;;;24.85;33.18;101273.22;5066277;28;20046;-68
2021/08/30 10:27:15;;;;;;;4.68;3.75;;;;;;;24.65;34.25;101256.59;5066077;28;20025;-67
2021/08/30 10:29:43;;;;;;;3.83;3.03;;;;;;;24.69;34.03;101266.13;5066231;28;20099;-67
2021/08/30 10:32:22;;;;;;;4.82;3.47;;;;;;;24.43;34.32;101283.44;5065077;28;20025;-67
2021/08/30 10:34:54;;;;;;;4.82;3.50;;;;;;;24.22;34.96;101265.94;5066213;28;20028;-67
2021/08/30 10:37:21;;;;;;;5.57;3.17;;;;;;;24.52;35.33;101259.09;5065816;28;20021;-67
2021/08/30 10:39:53;;;;;;;4.20;3.10;;;;;;;24.47;34.28;101275.22;5065562;28;20044;-66
2021/08/30 10:42:20;;;;;;;4.93;3.55;;;;;;;24.45;34.73;101303.66;5065771;28;20040;-67
2021/08/30 10:45:05;;;;;;;12.10;4.13;;;;;;;24.37;34.79;101277.53;5066256;28;20041;-69
2021/08/30 10:47:35;;;;;;;5.38;3.45;;;;;;;24.47;34.53;101238.06;5065672;28;20096;-66
2021/08/30 10:50:02;;;;;;;5.65;3.40;;;;;;;24.54;34.64;101261.66;5065642;28;20024;-68
2021/08/30 10:52:40;;;;;;;4.85;3.28;;;;;;;24.62;34.51;101257.63;5065463;28;20033;-67
2021/08/30 10:55:17;;;;;;;4.35;3.03;;;;;;;24.60;34.10;101259.50;5065391;28;20029;-67
2021/08/30 10:57:49;;;;;;;7.07;3.85;;;;;;;24.47;35.31;101264.59;5065364;28;20025;-67
2021/08/30 11:00:15;;;;;;;5.07;3.70;;;;;;;24.59;34.98;101249.84;5065427;28;20566;-67
2021/08/30 11:02:49;;;;;;;5.95;3.47;;;;;;;24.56;34.78;101243.81;5064357;28;20020;-67
2021/08/30 11:05:24;;;;;;;5.20;3.47;;;;;;;24.58;35.05;101239.31;5064465;28;20017;-67
2021/08/30 11:07:53;;;;;;;4.43;3.33;;;;;;;25.05;34.73;101247.41;5065275;28;20032;-68
2021/08/30 11:10:19;;;;;;;5.53;3.50;;;;;;;25.38;34.22;101243.75;5064940;28;20021;-68
2021/08/30 11:12:45;;;;;;;5.20;3.95;;;;;;;25.54;33.70;101245.50;5065379;28;20098;-68
2021/08/30 11:15:12;;;;;;;7.35;3.75;;;;;;;25.45;33.35;101250.41;5065356;28;20021;-68
2021/08/30 11:17:37;;;;;;;4.47;3.33;;;;;;;25.25;33.48;101239.16;5064857;28;20032;-68
2021/08/30 11:20:05;;;;;;;6.32;3.00;;;;;;;25.72;32.97;101239.13;5065257;28;20017;-68
2021/08/30 11:22:31;;;;;;;4.00;3.10;;;;;;;25.97;32.33;101232.34;5065122;28;20021;-68
2021/08/30 11:25:02;;;;;;;4.00;2.88;;;;;;;26.24;32.40;101236.03;5065393;28;20035;-68